Exceptional Flight Instruction

Our Team

Safe Aircraft

Our Rentals

Outstanding Customer Service

Contact Us

AeroCamp 2017

AeroCamp Times (M-F 9AM-3PM)
June 19-23, 2017 – OPEN
July 10-14, 2017 – OPEN
$649/wk per Cadet (Roster size limited)

AeroCamp 2.0 Times (M-T 9AM-3PM)
June 26-29, 2017 – OPEN
July 17-20, 2017 – OPEN
$749/wk per Cadet (Roster size limited)

AeroCamp 3.0 Times (M-W – INCLUDES KITTY HAWK!)
June 12-14, 2017 – OPEN
August 7-9, 2017 – OPEN
$849/wk per Cadet (Roster size limited)

AeroCamp 4.0 Times (INCLUDES OSHKOSH!!)

July 24-28, 2017 - OPEN

Price TBD (Roster size limited)

About Us

Triad Aviation Academy, LLC


1030 PTI Drive
Greensboro, NC 27409

Phone: (336) 369-2804
Fax: (336) 664-6942

Weather

Available data for KGSO from the past 2 hours
GREENSBORO, NC
Metar
KGSO 280554Z 20010KT 10SM FEW050 SCT070 BKN250 18/16 A2994 RMK AO2 SLP131 OCNL LTGIC SW CB DSNT SW T01780156 10217 20178 58004

05:54 UTC

Wind: 200° 10kt

Visibility: 10 SM

Sky: FEW 5000 ft

Temp: 18 deg C / 64.4 deg F

Dewpoint: 16 deg C / 60.8 deg F

Pressure: 29.94 inHg

TAF
KGSO 280531Z 2806/2906 19011G16KT 5SM -TSRA BKN060CB FM280700 22008KT P6SM SCT020 BKN250 TEMPO 2809/2813 3SM -SHRA BKN010 OVC020 FM281600 26011KT P6SM SCT025 BKN035 FM290000 31006KT P6SM BKN250